Orebro, Sweden

11:30 AM CEST on August 28, 2014 (GMT +0200)
Orebro | Change Station
CLOSE
Current Station
Airport
Location: Orebro,
Elevation: 187 ft
Nearby Weather Stations

Elev 187 ft 59.22 °N, 15.04 °E | Updated 10 minutes ago

Clear
Clear
64 °F
Feels Like 64 °F
N
7
Wind Variable Wind from NW

Today
High -- | Low -- °F
--% Chance of Precip.
Yesterday
High -- | Low -- °F
Precip. -- in
5:47 AM 8:13 PM
Waxing Crescent, 7% visible
Pressure 29.92 in
Visibility -9999.0 miles
Clouds
Dew Point 46 °F
Humidity 52%
Rainfall 0.00 in
Snow Depth Not available.
UV Not available.
Pollen Not available.
Air Quality Not available.
Flu Activity Not available.
METAR ESOE 280920Z 32006KT 280V020 CAVOK 18/08 Q1013

More Conditions Fewer Conditions

Pressure 29.92 in
Visibility -9999.0 miles
Clouds
Dew Point 46 °F
Humidity 52%
Rainfall 0.00 in
Snow Depth Not available.
UV Not available.
Pollen Not available.
Air Quality Not available.
Flu Activity Not available.
METAR ESOE 280920Z 32006KT 280V020 CAVOK 18/08 Q1013

More Conditions Fewer Conditions

10-Day Weather Forecast

Almanac

Astronomy

Aug. 28, 2014 Rise Set
Actual Time 5:47 AM CEST 8:13 PM CEST
Civil Twilight 5:02 AM CEST 8:58 PM CEST
Nautical Twilight 4:02 AM CEST 9:56 PM CEST
Astronomical Twilight 2:42 AM CEST 11:14 PM CEST
Moon 9:10 AM CEST 8:35 PM CEST
Length of Visible Light 15h 56m
Length of Day
14h 26m
Tomorrow will be 5m 9s shorter.
Waxing Crescent, 7% of the Moon is Illuminated
Today
Waxing Crescent
Sep 2
First Quarter
Sep 8
Full
Sep 15
Last Quarter
Sep 24
New

Yesterday's Extremes

Country Highs Country Lows

Community

WunderPhotos

Upload Photos

1,747,918 photos uploaded!

Nearby

Snow Depth

Not available.

Earthquake Activity

City Distance Mag. Time & Date
No recent earthquake activity has been reported nearby.
Minimum magnitude displayed is 2.5.

Coastal Water Temperatures

Place Temperature
No Stations Reporting

Nearby Weather Stations